map of TUR home
Great Circle Mapper logo
TUR - Airport
Location
City:  Tucuruí, Pará, Brazil
ICAO / IATA:SBTU / TUR

Details
Type:Airport (Aerodrome, Airfield)
Latitude:3°47'10"S (-3.786007)
Longitude:49°43'13"W (-49.720266)
Datum:WGS 1984
Elevation:830 ft (253 m)
Runways:1
Longest:6562 × 148 ft (2000 × 45 m), paved

Time
Time Zone:UTC-3
Local Time:

Weather
METAR:SBTU 222130Z 00000KT 9999 SCT018 BKN070 23/23 Q1013

Related Locations
Nearby:
Farthest:OTI: 12260 mi / 19731 km
Pitu, Morotai Island, ID

Find:

   beyond  
but within

Other Information
Maps:
NOTAMs:
Links:
Sources:

  
flag of Brazil
flag of Pará
  

Sectional Chart

Flight Planning
at skyvector.com

Satellite Image

Google Maps Satellite View

 

Copyright © 2004-2014 Karl L. Swartz. All rights reserved.
The Great Circle Mapper name and logo are trademarks of the Great Circle Mapper.
All other trademarks mentioned herein belong to their respective owners.
Please see credits for attibutions and further copyright information.

  Follow gcmap on Facebook Follow gcmap on Twitter

hCard Microformat

Geo Microformat